createdAt,value
2017-01-20T00:00:27.321Z,15.33
2017-01-20T00:01:36.445Z,15.23
2017-01-20T00:02:47.185Z,15.14
2017-01-20T00:03:57.907Z,15.23
2017-01-20T00:05:08.213Z,15.23
2017-01-20T00:06:18.524Z,15.43
2017-01-20T00:07:29.224Z,15.62
2017-01-20T00:08:39.538Z,15.05
2017-01-20T00:09:49.452Z,15.14
2017-01-20T00:10:58.975Z,15.05
2017-01-20T00:12:08.495Z,15.05
2017-01-20T00:13:18.805Z,15.05
2017-01-20T00:14:28.723Z,15.14
2017-01-20T00:15:39.036Z,15.33
2017-01-20T00:16:49.746Z,15.52
2017-01-20T00:18:00.077Z,15.52
2017-01-20T00:19:10.383Z,15.14
2017-01-20T00:20:19.903Z,15.14
2017-01-20T00:21:30.231Z,15.33
2017-01-20T00:22:40.166Z,15.52
2017-01-20T00:23:50.473Z,15.23
2017-01-20T00:25:01.174Z,15.33
2017-01-20T00:26:11.096Z,15.43
2017-01-20T00:27:21.394Z,15.33
2017-01-20T00:28:31.714Z,15.33
2017-01-20T00:29:42.016Z,15.62
2017-01-20T00:30:52.731Z,15.62
2017-01-20T00:32:03.439Z,15.52
2017-01-20T00:33:14.179Z,15.43
2017-01-20T00:34:24.924Z,15.52
2017-01-20T00:35:35.262Z,15.43
2017-01-20T00:36:45.987Z,15.43
2017-01-20T00:37:56.304Z,15.33
2017-01-20T00:39:06.623Z,15.33
2017-01-20T00:40:16.930Z,15.23
2017-01-20T00:41:26.851Z,15.14
2017-01-20T00:42:37.558Z,15.14
2017-01-20T00:43:48.271Z,15.23
2017-01-20T00:44:58.194Z,15.43
2017-01-20T00:46:08.505Z,15.33
2017-01-20T00:47:18.032Z,15.33
2017-01-20T00:48:28.332Z,15.52
2017-01-20T00:49:38.639Z,15.62
2017-01-20T00:50:48.943Z,15.62
2017-01-20T00:51:59.704Z,15.23
2017-01-20T00:53:09.619Z,15.14
2017-01-20T00:54:20.313Z,15.14
2017-01-20T00:55:29.850Z,15.14
2017-01-20T00:56:40.163Z,15.14
2017-01-20T00:57:50.882Z,15.23
2017-01-20T00:59:01.577Z,15.33
2017-01-20T01:00:11.888Z,15.33
2017-01-20T01:01:21.801Z,15.43
2017-01-20T01:02:32.107Z,15.43
2017-01-20T01:03:43.043Z,15.52
2017-01-20T01:04:53.735Z,15.14
2017-01-20T01:06:03.256Z,15.33
2017-01-20T01:07:13.205Z,15.14
2017-01-20T01:08:23.507Z,15.52
2017-01-20T01:09:33.808Z,15.42
2017-01-20T01:10:44.106Z,15.62
2017-01-20T01:11:54.428Z,15.62
2017-01-20T01:13:04.351Z,15.52
2017-01-20T01:14:13.470Z,15.43
2017-01-20T01:15:24.203Z,15.43
2017-01-20T01:16:34.510Z,15.43
2017-01-20T01:17:44.821Z,15.61
2017-01-20T01:18:54.743Z,15.52
2017-01-20T01:20:04.651Z,15.52
2017-01-20T01:21:14.977Z,15.52
2017-01-20T01:22:25.281Z,15.43
2017-01-20T01:23:35.193Z,15.05
2017-01-20T01:24:45.104Z,15.14
2017-01-20T01:25:55.815Z,15.05
2017-01-20T01:27:06.509Z,15.14
2017-01-20T01:28:16.421Z,15.14
2017-01-20T01:29:26.735Z,15.05
2017-01-20T01:30:37.041Z,15.14
2017-01-20T01:31:47.350Z,15.14
2017-01-20T01:32:57.264Z,15.05
2017-01-20T01:34:07.990Z,15.33
2017-01-20T01:35:18.700Z,15.52
2017-01-20T01:36:28.621Z,15.72
2017-01-20T01:37:39.338Z,15.62
2017-01-20T01:38:49.658Z,15.52
2017-01-20T01:39:59.968Z,15.33
2017-01-20T01:41:10.678Z,15.33
2017-01-20T01:42:19.808Z,15.52
2017-01-20T01:43:29.712Z,15.52
2017-01-20T01:44:40.025Z,15.52
2017-01-20T01:45:50.329Z,15.43
2017-01-20T01:47:00.640Z,15.52
2017-01-20T01:48:10.566Z,15.43
2017-01-20T01:49:20.879Z,15.43
2017-01-20T01:50:30.796Z,15.33
2017-01-20T01:51:41.129Z,15.43
2017-01-20T01:52:51.432Z,15.43
2017-01-20T01:54:01.375Z,15.23
2017-01-20T01:55:11.301Z,15.33
2017-01-20T01:56:21.217Z,15.43
2017-01-20T01:57:31.561Z,15.43
2017-01-20T01:58:41.868Z,15.43
2017-01-20T01:59:52.179Z,15.23
2017-01-20T02:01:02.492Z,15.43
2017-01-20T02:02:12.811Z,15.43
2017-01-20T02:03:23.515Z,15.23
2017-01-20T02:04:34.220Z,15.52
2017-01-20T02:05:44.130Z,15.23
2017-01-20T02:06:54.444Z,15.52
2017-01-20T02:08:04.758Z,15.33
2017-01-20T02:09:15.459Z,15.62
2017-01-20T02:10:25.782Z,15.52
2017-01-20T02:11:35.699Z,15.43
2017-01-20T02:12:46.012Z,15.23
2017-01-20T02:13:55.933Z,15.05
2017-01-20T02:15:06.242Z,15.05
2017-01-20T02:16:16.986Z,15.33
2017-01-20T02:17:27.299Z,15.14
2017-01-20T02:18:36.821Z,15.14
2017-01-20T02:19:47.136Z,15.14
2017-01-20T02:20:57.440Z,15.43
2017-01-20T02:22:07.757Z,15.33
2017-01-20T02:23:18.061Z,15.05
2017-01-20T02:24:27.971Z,15.23
2017-01-20T02:25:37.482Z,15.05
2017-01-20T02:26:47.827Z,15.14
2017-01-20T02:27:58.154Z,15.05
2017-01-20T02:29:08.063Z,15.14
2017-01-20T02:30:18.781Z,15.14
2017-01-20T02:31:28.698Z,15.33
2017-01-20T02:32:39.008Z,15.23
2017-01-20T02:33:49.328Z,15.33
2017-01-20T02:34:59.242Z,15.14
2017-01-20T02:36:09.152Z,15.14
2017-01-20T02:37:19.072Z,15.14
2017-01-20T02:38:29.017Z,15.14
2017-01-20T02:39:39.328Z,15.14
2017-01-20T02:40:49.650Z,15.14
2017-01-20T02:41:59.164Z,15.33
2017-01-20T02:43:09.499Z,15.33
2017-01-20T02:44:19.811Z,15.14
2017-01-20T02:45:29.330Z,15.14
2017-01-20T02:46:40.034Z,15.14
2017-01-20T02:47:50.351Z,15.14
2017-01-20T02:49:00.668Z,15.23
2017-01-20T02:50:10.574Z,15.33
2017-01-20T02:51:20.498Z,15.14
2017-01-20T02:52:30.801Z,15.33
2017-01-20T02:53:41.358Z,15.14
2017-01-20T02:54:52.062Z,15.23
2017-01-20T02:56:01.970Z,15.43
2017-01-20T02:57:11.880Z,15.72
2017-01-20T02:58:21.400Z,15.43
2017-01-20T02:59:31.707Z,15.43
2017-01-20T03:00:41.220Z,15.62
2017-01-20T03:01:51.138Z,15.52
2017-01-20T03:03:01.448Z,15.52
2017-01-20T03:04:11.752Z,15.72
2017-01-20T03:05:21.662Z,15.43
2017-01-20T03:06:32.357Z,15.52
2017-01-20T03:07:42.261Z,15.23
2017-01-20T03:08:52.974Z,15.14
2017-01-20T03:10:02.884Z,15.33
2017-01-20T03:11:13.201Z,15.23
2017-01-20T03:12:23.512Z,15.33
2017-01-20T03:13:33.051Z,15.43
2017-01-20T03:14:42.968Z,15.43
2017-01-20T03:15:53.271Z,15.43
2017-01-20T03:17:04.005Z,15.52
2017-01-20T03:18:14.317Z,15.62
2017-01-20T03:19:24.226Z,15.43
2017-01-20T03:20:34.533Z,15.33
2017-01-20T03:21:45.249Z,15.33
2017-01-20T03:22:55.953Z,15.33
2017-01-20T03:24:06.261Z,15.52
2017-01-20T03:25:16.205Z,15.33
2017-01-20T03:26:26.514Z,15.62
2017-01-20T03:27:37.224Z,15.52
2017-01-20T03:28:47.531Z,15.52
2017-01-20T03:29:57.843Z,15.52
2017-01-20T03:31:07.764Z,15.23
2017-01-20T03:32:18.466Z,15.33
2017-01-20T03:33:28.773Z,15.33
2017-01-20T03:34:39.489Z,15.23
2017-01-20T03:35:49.787Z,15.23
2017-01-20T03:36:59.707Z,15.33
2017-01-20T03:38:09.627Z,15.43
2017-01-20T03:39:20.331Z,15.43
2017-01-20T03:40:30.238Z,15.62
2017-01-20T03:41:40.143Z,15.52
2017-01-20T03:42:50.447Z,15.43
2017-01-20T03:43:59.974Z,15.33
2017-01-20T03:45:09.889Z,15.23
2017-01-20T03:46:19.413Z,15.14
2017-01-20T03:47:29.718Z,15.33
2017-01-20T03:48:40.413Z,15.43
2017-01-20T03:49:51.152Z,15.52
2017-01-20T03:51:01.463Z,15.52
2017-01-20T03:52:11.174Z,15.52
2017-01-20T03:53:20.694Z,15.52
2017-01-20T03:54:31.004Z,15.43
2017-01-20T03:55:41.312Z,15.72
2017-01-20T03:56:51.622Z,15.52
2017-01-20T03:58:01.932Z,15.52
2017-01-20T03:59:12.233Z,15.62
2017-01-20T04:00:22.150Z,15.52
2017-01-20T04:01:32.086Z,15.33
2017-01-20T04:02:42.793Z,15.62
2017-01-20T04:03:52.512Z,15.52
2017-01-20T04:05:02.029Z,15.52
2017-01-20T04:06:12.348Z,15.52
2017-01-20T04:07:23.055Z,15.43
2017-01-20T04:08:33.753Z,15.43
2017-01-20T04:09:44.065Z,15.52
2017-01-20T04:10:53.986Z,15.43
2017-01-20T04:12:04.290Z,15.52
2017-01-20T04:13:14.601Z,15.14
2017-01-20T04:14:25.304Z,15.23
2017-01-20T04:15:35.612Z,15.23
2017-01-20T04:16:45.926Z,15.23
2017-01-20T04:17:55.451Z,15.14
2017-01-20T04:19:06.146Z,15.23
2017-01-20T04:20:16.453Z,15.05
2017-01-20T04:21:26.357Z,15.05
2017-01-20T04:22:36.273Z,15.33
2017-01-20T04:23:46.590Z,15.33
2017-01-20T04:24:57.300Z,15.43
2017-01-20T04:26:06.826Z,15.52
2017-01-20T04:27:16.746Z,15.23
2017-01-20T04:28:27.448Z,15.23
2017-01-20T04:29:37.754Z,15.23
2017-01-20T04:30:48.077Z,15.14
2017-01-20T04:31:58.384Z,15.14
2017-01-20T04:33:08.684Z,15.14
2017-01-20T04:34:18.204Z,15.43
2017-01-20T04:35:28.118Z,15.52
2017-01-20T04:36:38.028Z,15.43
2017-01-20T04:37:48.341Z,15.43
2017-01-20T04:38:58.661Z,15.33
2017-01-20T04:40:08.963Z,15.33
2017-01-20T04:41:18.489Z,15.14
2017-01-20T04:42:27.639Z,15.14
2017-01-20T04:43:37.945Z,15.23
2017-01-20T04:44:48.652Z,15.14
2017-01-20T04:45:59.062Z,15.14
2017-01-20T04:47:09.371Z,15.05
2017-01-20T04:48:19.628Z,15.14
2017-01-20T04:49:29.936Z,15.14
2017-01-20T04:50:39.446Z,15.14
2017-01-20T04:51:49.356Z,15.23
2017-01-20T04:53:00.083Z,15.13
2017-01-20T04:54:10.784Z,15.33
2017-01-20T04:55:21.083Z,15.23
2017-01-20T04:56:31.001Z,15.33
2017-01-20T04:57:41.303Z,15.14
2017-01-20T04:58:51.616Z,15.14
2017-01-20T05:00:01.537Z,15.14
2017-01-20T05:01:11.999Z,15.23
2017-01-20T05:02:22.314Z,15.23
2017-01-20T05:03:33.020Z,15.05
2017-01-20T05:04:43.719Z,15.05
2017-01-20T05:05:54.413Z,15.23
2017-01-20T05:07:04.322Z,15.23
2017-01-20T05:08:14.241Z,15.33
2017-01-20T05:09:24.935Z,15.23
2017-01-20T05:10:34.849Z,15.33
2017-01-20T05:11:45.550Z,15.52
2017-01-20T05:12:56.260Z,15.52
2017-01-20T05:14:06.561Z,15.61
2017-01-20T05:15:16.472Z,15.52
2017-01-20T05:16:27.181Z,15.61
2017-01-20T05:17:37.096Z,15.61
2017-01-20T05:18:47.809Z,15.61
2017-01-20T05:19:58.107Z,15.8
2017-01-20T05:21:08.815Z,15.8
2017-01-20T05:22:18.738Z,15.71
2017-01-20T05:23:29.445Z,15.61
2017-01-20T05:24:39.752Z,15.61
2017-01-20T05:25:50.059Z,15.52
2017-01-20T05:27:00.355Z,15.61
2017-01-20T05:28:11.052Z,15.9
2017-01-20T05:29:21.356Z,15.52
2017-01-20T05:30:32.057Z,15.52
2017-01-20T05:31:42.361Z,15.61
2017-01-20T05:32:52.278Z,15.71
2017-01-20T05:34:02.191Z,15.9
2017-01-20T05:35:12.896Z,15.61
2017-01-20T05:36:23.206Z,15.61
2017-01-20T05:37:33.507Z,15.52
2017-01-20T05:38:43.818Z,15.61
2017-01-20T05:39:53.767Z,15.61
2017-01-20T05:41:03.298Z,15.61
2017-01-20T05:42:13.610Z,15.81
2017-01-20T05:43:24.319Z,15.71
2017-01-20T05:44:35.024Z,15.61
2017-01-20T05:45:45.349Z,15.8
2017-01-20T05:46:55.662Z,15.8
2017-01-20T05:48:05.969Z,15.61
2017-01-20T05:49:16.672Z,15.52
2017-01-20T05:50:27.376Z,15.71
2017-01-20T05:51:38.368Z,15.71
2017-01-20T05:52:48.682Z,15.8
2017-01-20T05:53:58.596Z,15.8
2017-01-20T05:55:08.528Z,15.61
2017-01-20T05:56:18.889Z,15.8
2017-01-20T05:57:29.618Z,15.9
2017-01-20T05:58:39.927Z,15.71
2017-01-20T05:59:50.250Z,15.8
2017-01-20T06:01:00.561Z,15.8
2017-01-20T06:02:10.880Z,15.71
2017-01-20T06:03:21.585Z,15.8
2017-01-20T06:04:31.495Z,15.9
2017-01-20T06:05:41.422Z,15.8
2017-01-20T06:06:51.739Z,15.61
2017-01-20T06:08:02.436Z,15.71
2017-01-20T06:09:12.744Z,15.71
2017-01-20T06:10:22.660Z,15.8
2017-01-20T06:11:33.376Z,15.8
2017-01-20T06:12:43.688Z,15.8
2017-01-20T06:13:53.214Z,15.71
2017-01-20T06:15:03.137Z,15.8
2017-01-20T06:16:13.856Z,15.61
2017-01-20T06:17:23.764Z,15.71
2017-01-20T06:18:34.072Z,15.9
2017-01-20T06:19:44.782Z,15.61
2017-01-20T06:20:55.492Z,15.8
2017-01-20T06:22:05.822Z,15.71
2017-01-20T06:23:15.770Z,15.61
2017-01-20T06:24:26.081Z,15.52
2017-01-20T06:25:36.407Z,15.71
2017-01-20T06:26:46.728Z,15.9
2017-01-20T06:27:56.677Z,15.9
2017-01-20T06:29:06.180Z,15.8
2017-01-20T06:30:16.103Z,15.61
2017-01-20T06:31:26.433Z,15.71
2017-01-20T06:32:36.752Z,15.42
2017-01-20T06:33:47.063Z,15.52
2017-01-20T06:34:57.373Z,15.23
2017-01-20T06:36:08.128Z,15.13
2017-01-20T06:37:18.471Z,15.14
2017-01-20T06:38:28.382Z,15.23
2017-01-20T06:39:39.096Z,15.33
2017-01-20T06:40:49.018Z,15.04
2017-01-20T06:41:59.331Z,15.04
2017-01-20T06:43:09.258Z,15.05
2017-01-20T06:44:19.658Z,14.75
2017-01-20T06:45:30.410Z,14.84
2017-01-20T06:46:39.932Z,14.84
2017-01-20T06:47:49.841Z,14.94
2017-01-20T06:49:00.158Z,14.94
2017-01-20T06:50:10.468Z,14.75
2017-01-20T06:51:20.772Z,14.95
2017-01-20T06:52:31.079Z,14.95
2017-01-20T06:53:41.009Z,14.85
2017-01-20T06:54:50.933Z,14.75
2017-01-20T06:56:00.843Z,14.75
2017-01-20T06:57:11.153Z,14.84
2017-01-20T06:58:21.473Z,14.76
2017-01-20T06:59:31.783Z,14.66
2017-01-20T07:00:42.100Z,14.66
2017-01-20T07:01:52.212Z,14.56
2017-01-20T07:03:02.525Z,14.56
2017-01-20T07:04:13.230Z,14.56
2017-01-20T07:05:23.940Z,14.47
2017-01-20T07:06:34.238Z,14.27
2017-01-20T07:07:44.785Z,14.46
2017-01-20T07:08:55.089Z,14.37
2017-01-20T07:10:05.412Z,14.37
2017-01-20T07:11:14.542Z,13.99
2017-01-20T07:12:24.843Z,14.09
2017-01-20T07:13:35.563Z,14.09
2017-01-20T07:14:46.280Z,14.08
2017-01-20T07:15:56.597Z,14.28
2017-01-20T07:17:07.099Z,14.18
2017-01-20T07:18:17.042Z,14.28
2017-01-20T07:19:26.971Z,14.18
2017-01-20T07:20:36.882Z,14.28
2017-01-20T07:21:46.814Z,13.89
2017-01-20T07:22:56.738Z,13.99
2017-01-20T07:24:06.267Z,13.99
2017-01-20T07:25:15.406Z,14.09
2017-01-20T07:26:25.723Z,13.99
2017-01-20T07:27:36.046Z,14.18
2017-01-20T07:28:46.757Z,13.8
2017-01-20T07:29:56.685Z,13.8
2017-01-20T07:31:07.006Z,13.89
2017-01-20T07:32:17.755Z,13.8
2017-01-20T07:33:27.777Z,13.89
2017-01-20T07:34:37.714Z,13.89
2017-01-20T07:35:47.628Z,13.7
2017-01-20T07:36:57.953Z,13.89
2017-01-20T07:38:08.684Z,13.99
2017-01-20T07:39:18.622Z,13.99
2017-01-20T07:40:28.965Z,13.89
2017-01-20T07:41:39.691Z,13.8
2017-01-20T07:42:49.274Z,13.6
2017-01-20T07:43:59.207Z,13.7
2017-01-20T07:45:09.542Z,13.6
2017-01-20T07:46:19.851Z,13.8
2017-01-20T07:47:30.573Z,13.7
2017-01-20T07:48:41.300Z,13.6
2017-01-20T07:49:52.035Z,13.89
2017-01-20T07:51:02.373Z,13.7
2017-01-20T07:52:12.697Z,13.7
2017-01-20T07:53:23.436Z,13.42
2017-01-20T07:54:33.779Z,13.32
2017-01-20T07:55:44.524Z,13.42
2017-01-20T07:56:54.856Z,13.51
2017-01-20T07:58:05.573Z,13.42
2017-01-20T07:59:16.293Z,13.42
2017-01-20T08:00:26.210Z,13.23
2017-01-20T08:01:36.133Z,13.42
2017-01-20T08:02:46.679Z,13.42
2017-01-20T08:03:56.196Z,13.42
2017-01-20T08:05:06.115Z,13.23
2017-01-20T08:06:16.839Z,13.32
2017-01-20T08:07:27.155Z,13.42
2017-01-20T08:08:37.472Z,13.32
2017-01-20T08:09:47.802Z,13.32
2017-01-20T08:10:58.574Z,13.51
2017-01-20T08:12:08.147Z,13.42
2017-01-20T08:13:18.246Z,13.42
2017-01-20T08:14:28.963Z,13.32
2017-01-20T08:15:39.272Z,13.23
2017-01-20T08:16:49.992Z,13.6
2017-01-20T08:18:00.306Z,13.6
2017-01-20T08:19:10.229Z,13.42
2017-01-20T08:20:20.561Z,13.03
2017-01-20T08:21:31.275Z,13.23
2017-01-20T08:22:42.010Z,13.23
2017-01-20T08:23:52.323Z,13.13
2017-01-20T08:25:02.640Z,13.42
2017-01-20T08:26:12.973Z,13.23
2017-01-20T08:27:22.903Z,13.13
2017-01-20T08:28:32.428Z,13.23
2017-01-20T08:29:42.751Z,13.23
2017-01-20T08:30:53.491Z,12.94
2017-01-20T08:32:03.797Z,13.04
2017-01-20T08:33:14.130Z,13.04
2017-01-20T08:34:24.437Z,13.13
2017-01-20T08:35:34.754Z,12.94
2017-01-20T08:36:45.092Z,13.23
2017-01-20T08:37:55.015Z,13.23
2017-01-20T08:39:05.345Z,13.23
2017-01-20T08:40:15.686Z,13.32
2017-01-20T08:41:26.423Z,13.13
2017-01-20T08:42:36.746Z,12.94
2017-01-20T08:43:47.472Z,12.94
2017-01-20T08:44:58.189Z,13.13
2017-01-20T08:46:08.143Z,13.13
2017-01-20T08:47:18.930Z,13.23
2017-01-20T08:48:28.907Z,13.04
2017-01-20T08:49:39.657Z,13.52
2017-01-20T08:50:50.035Z,13.04
2017-01-20T08:52:00.361Z,13.23
2017-01-20T08:53:11.104Z,13.23
2017-01-20T08:54:21.443Z,13.13
2017-01-20T08:55:31.001Z,13.23
2017-01-20T08:56:40.928Z,13.04
2017-01-20T08:57:51.651Z,13.23
2017-01-20T08:59:01.570Z,12.85
2017-01-20T09:00:12.316Z,13.13
2017-01-20T09:01:21.866Z,13.23
2017-01-20T09:02:32.609Z,13.04
2017-01-20T09:03:42.554Z,13.04
2017-01-20T09:04:52.909Z,13.23
2017-01-20T09:06:03.671Z,13.04
2017-01-20T09:07:14.400Z,13.13
2017-01-20T09:08:25.148Z,13.04
2017-01-20T09:09:35.071Z,13.13
2017-01-20T09:10:45.389Z,13.04
2017-01-20T09:11:55.735Z,13.04
2017-01-20T09:13:06.461Z,13.13
2017-01-20T09:14:16.794Z,13.14
2017-01-20T09:15:27.152Z,13.13
2017-01-20T09:16:37.926Z,13.13
2017-01-20T09:17:48.671Z,13.24
2017-01-20T09:18:59.029Z,13.23
2017-01-20T09:20:09.792Z,13.13
2017-01-20T09:21:20.561Z,13.13
2017-01-20T09:22:30.922Z,13.23
2017-01-20T09:23:41.281Z,13.14
2017-01-20T09:24:51.639Z,13.24
2017-01-20T09:26:01.984Z,13.24
2017-01-20T09:27:11.946Z,12.95
2017-01-20T09:28:22.291Z,13.13
2017-01-20T09:29:33.005Z,12.95
2017-01-20T09:30:42.545Z,13.23
2017-01-20T09:31:53.084Z,12.85
2017-01-20T09:33:03.419Z,12.85
2017-01-20T09:34:13.741Z,12.85
2017-01-20T09:35:24.474Z,12.95
2017-01-20T09:36:35.209Z,12.95
2017-01-20T09:37:45.540Z,12.95
2017-01-20T09:38:55.485Z,12.85
2017-01-20T09:40:05.827Z,12.95
2017-01-20T09:41:15.767Z,12.95
2017-01-20T09:42:26.503Z,12.57
2017-01-20T09:43:37.222Z,12.57
2017-01-20T09:44:47.949Z,12.47
2017-01-20T09:45:58.708Z,12.66
2017-01-20T09:47:09.729Z,12.57
2017-01-20T09:48:20.920Z,12.57
2017-01-20T09:49:31.690Z,12.57
2017-01-20T09:50:42.973Z,12.85
2017-01-20T09:51:53.857Z,12.57
2017-01-20T09:53:03.829Z,12.47
2017-01-20T09:54:13.764Z,12.47
2017-01-20T09:55:24.401Z,12.37
2017-01-20T09:56:34.750Z,12.47
2017-01-20T09:57:45.077Z,12.47
2017-01-20T09:58:55.432Z,12.37
2017-01-20T10:00:05.788Z,12.47
2017-01-20T10:01:16.540Z,12.37
2017-01-20T10:02:26.466Z,12.37
2017-01-20T10:03:36.799Z,12.28
2017-01-20T10:04:46.770Z,12.29
2017-01-20T10:05:57.512Z,12.18
2017-01-20T10:07:07.445Z,12.28
2017-01-20T10:08:18.236Z,12.19
2017-01-20T10:09:28.560Z,12.18
2017-01-20T10:10:37.703Z,12.29
2017-01-20T10:11:48.073Z,12.18
2017-01-20T10:12:58.799Z,12.29
2017-01-20T10:14:09.131Z,12.19
2017-01-20T10:15:19.849Z,12.18
2017-01-20T10:16:30.588Z,12.18
2017-01-20T10:17:41.308Z,12.19
2017-01-20T10:18:51.628Z,12.29
2017-01-20T10:20:01.167Z,12.19
2017-01-20T10:21:11.497Z,12.29
2017-01-20T10:22:22.233Z,12.38
2017-01-20T10:23:32.580Z,12.19
2017-01-20T10:24:42.931Z,12.48
2017-01-20T10:25:53.271Z,12.76
2017-01-20T10:27:03.226Z,12.38
2017-01-20T10:28:13.148Z,12.66
2017-01-20T10:29:23.499Z,12.48
2017-01-20T10:30:34.233Z,12.38
2017-01-20T10:31:44.942Z,12.19
2017-01-20T10:32:55.675Z,12.29
2017-01-20T10:34:06.408Z,12.19
2017-01-20T10:35:16.776Z,12.48
2017-01-20T10:36:27.346Z,12.86
2017-01-20T10:37:37.669Z,12.57
2017-01-20T10:38:48.051Z,12.66
2017-01-20T10:39:58.434Z,12.38
2017-01-20T10:41:08.799Z,12.57
2017-01-20T10:42:19.544Z,12.48
2017-01-20T10:43:30.280Z,12.48
2017-01-20T10:44:40.628Z,12.38
2017-01-20T10:45:51.347Z,12.57
2017-01-20T10:47:01.279Z,12.48
2017-01-20T10:48:11.228Z,12.66
2017-01-20T10:49:21.574Z,12.66
2017-01-20T10:50:31.921Z,12.57
2017-01-20T10:51:41.865Z,12.66
2017-01-20T10:52:51.791Z,12.57
2017-01-20T10:54:02.536Z,12.48
2017-01-20T10:55:13.266Z,12.57
2017-01-20T10:56:23.619Z,12.86
2017-01-20T10:57:34.390Z,12.76
2017-01-20T10:58:44.716Z,12.57
2017-01-20T10:59:54.635Z,12.48
2017-01-20T11:01:05.350Z,12.57
2017-01-20T11:02:16.090Z,12.57
2017-01-20T11:03:26.024Z,12.48
2017-01-20T11:04:36.355Z,12.48
2017-01-20T11:05:46.323Z,12.66
2017-01-20T11:06:57.049Z,12.66
2017-01-20T11:08:07.399Z,12.38
2017-01-20T11:09:17.728Z,12.76
2017-01-20T11:10:27.711Z,12.66
2017-01-20T11:11:38.028Z,12.48
2017-01-20T11:12:47.949Z,12.66
2017-01-20T11:13:57.872Z,12.76
2017-01-20T11:15:07.802Z,12.76
2017-01-20T11:16:18.522Z,12.48
2017-01-20T11:17:28.858Z,13.05
2017-01-20T11:18:39.569Z,12.66
2017-01-20T11:19:49.888Z,12.66
2017-01-20T11:21:00.214Z,12.57
2017-01-20T11:22:10.560Z,12.96
2017-01-20T11:23:20.891Z,12.66
2017-01-20T11:24:31.225Z,12.66
2017-01-20T11:25:41.549Z,12.66
2017-01-20T11:26:51.868Z,12.66
2017-01-20T11:28:02.612Z,12.66
2017-01-20T11:29:13.361Z,12.57
2017-01-20T11:30:24.086Z,12.58
2017-01-20T11:31:34.806Z,12.87
2017-01-20T11:32:45.533Z,12.86
2017-01-20T11:33:55.856Z,12.87
2017-01-20T11:35:06.586Z,13.24
2017-01-20T11:36:17.344Z,13.15
2017-01-20T11:37:27.671Z,13.15
2017-01-20T11:38:36.407Z,13.15
2017-01-20T11:39:46.750Z,13.24
2017-01-20T11:40:57.480Z,13.05
2017-01-20T11:42:07.812Z,13.15
2017-01-20T11:43:17.754Z,13.43
2017-01-20T11:44:28.488Z,13.34
2017-01-20T11:45:39.224Z,13.15
2017-01-20T11:46:49.553Z,13.24
2017-01-20T11:47:59.473Z,13.43
2017-01-20T11:49:09.425Z,13.34
2017-01-20T11:50:19.777Z,13.43
2017-01-20T11:51:30.107Z,13.34
2017-01-20T11:52:40.450Z,13.34
2017-01-20T11:53:51.229Z,13.24
2017-01-20T11:55:01.551Z,13.15
2017-01-20T11:56:11.904Z,13.53
2017-01-20T11:57:21.841Z,13.25
2017-01-20T11:58:32.155Z,13.25
2017-01-20T11:59:42.491Z,13.44
2017-01-20T12:00:52.440Z,13.34
2017-01-20T12:02:02.796Z,13.35
2017-01-20T12:03:13.128Z,13.43
2017-01-20T12:04:23.857Z,13.53
2017-01-20T12:05:33.789Z,13.44
2017-01-20T12:06:44.116Z,13.54
2017-01-20T12:07:54.448Z,13.44
2017-01-20T12:09:04.856Z,13.53
2017-01-20T12:10:15.876Z,13.44
2017-01-20T12:11:25.815Z,13.92
2017-01-20T12:12:36.625Z,13.82
2017-01-20T12:13:47.374Z,14.01
2017-01-20T12:14:57.310Z,14.01
2017-01-20T12:16:08.036Z,13.72
2017-01-20T12:17:18.804Z,13.82
2017-01-20T12:18:29.144Z,13.63
2017-01-20T12:19:39.927Z,13.73
2017-01-20T12:20:50.280Z,13.73
2017-01-20T12:22:00.846Z,13.73
2017-01-20T12:23:11.620Z,14.02
2017-01-20T12:24:21.568Z,14.01
2017-01-20T12:25:31.952Z,14.02
2017-01-20T12:26:42.286Z,13.73
2017-01-20T12:27:52.618Z,13.92
2017-01-20T12:29:02.950Z,13.64
2017-01-20T12:30:13.489Z,13.82
2017-01-20T12:31:24.235Z,13.82
2017-01-20T12:32:34.966Z,13.82
2017-01-20T12:33:45.705Z,13.92
2017-01-20T12:34:56.309Z,14.2
2017-01-20T12:36:06.685Z,14.2
2017-01-20T12:37:16.668Z,14.01
2017-01-20T12:38:27.032Z,14.3
2017-01-20T12:39:37.785Z,14.11
2017-01-20T12:40:48.525Z,14.49
2017-01-20T12:41:59.267Z,14.2
2017-01-20T12:43:09.619Z,14.59
2017-01-20T12:44:19.576Z,14.69
2017-01-20T12:45:29.520Z,14.87
2017-01-20T12:46:40.282Z,14.97
2017-01-20T12:47:50.599Z,14.87
2017-01-20T12:49:00.961Z,14.97
2017-01-20T12:50:11.306Z,15.07
2017-01-20T12:51:22.036Z,14.87
2017-01-20T12:52:32.811Z,14.78
2017-01-20T12:53:43.540Z,14.87
2017-01-20T12:54:54.266Z,15.07
2017-01-20T12:56:04.200Z,15.16
2017-01-20T12:57:14.146Z,15.16
2017-01-20T12:58:24.085Z,15.36
2017-01-20T12:59:34.024Z,15.36
2017-01-20T13:00:44.751Z,15.16
2017-01-20T13:01:55.467Z,15.16
2017-01-20T13:03:05.416Z,15.26
2017-01-20T13:04:15.737Z,15.16
2017-01-20T13:05:26.108Z,15.26
2017-01-20T13:06:36.032Z,15.45
2017-01-20T13:07:46.002Z,15.64
2017-01-20T13:08:56.403Z,15.55
2017-01-20T13:10:06.754Z,15.64
2017-01-20T13:11:17.098Z,15.64
2017-01-20T13:12:27.829Z,15.83
2017-01-20T13:13:37.362Z,15.83
2017-01-20T13:14:48.076Z,15.74
2017-01-20T13:15:58.392Z,15.74
2017-01-20T13:17:08.732Z,15.74
2017-01-20T13:18:18.274Z,15.64
2017-01-20T13:19:29.016Z,15.64
2017-01-20T13:20:39.746Z,15.55
2017-01-20T13:21:50.097Z,15.55
2017-01-20T13:23:00.432Z,15.83
2017-01-20T13:24:11.162Z,15.55
2017-01-20T13:25:21.513Z,15.83
2017-01-20T13:26:32.252Z,15.83
2017-01-20T13:27:42.985Z,15.64
2017-01-20T13:28:52.909Z,15.83
2017-01-20T13:30:03.634Z,16.22
2017-01-20T13:31:13.577Z,15.93
2017-01-20T13:32:23.506Z,15.93
2017-01-20T13:33:33.437Z,16.03
2017-01-20T13:34:44.242Z,15.93
2017-01-20T13:35:54.584Z,15.93
2017-01-20T13:37:05.350Z,15.74
2017-01-20T13:38:15.272Z,15.93
2017-01-20T13:39:25.597Z,16.31
2017-01-20T13:40:36.046Z,15.92
2017-01-20T13:41:46.402Z,16.13
2017-01-20T13:42:57.135Z,16.03
2017-01-20T13:44:07.062Z,16.13
2017-01-20T13:45:17.399Z,15.83
2017-01-20T13:46:27.725Z,15.93
2017-01-20T13:47:38.048Z,15.93
2017-01-20T13:48:48.769Z,16.03
2017-01-20T13:49:58.694Z,15.83
2017-01-20T13:51:09.440Z,16.13
2017-01-20T13:52:20.163Z,16.31
2017-01-20T13:53:30.501Z,15.83
2017-01-20T13:54:40.828Z,15.83
2017-01-20T13:55:50.758Z,15.83
2017-01-20T13:57:01.511Z,16.13
2017-01-20T13:58:11.853Z,16.13
2017-01-20T13:59:21.788Z,15.93
2017-01-20T14:00:32.522Z,15.93
2017-01-20T14:01:43.248Z,16.13
2017-01-20T14:02:53.173Z,16.41
2017-01-20T14:04:03.516Z,16.41
2017-01-20T14:05:13.871Z,16.41
2017-01-20T14:06:24.189Z,16.31
2017-01-20T14:07:34.125Z,16.31
2017-01-20T14:08:44.492Z,16.5
2017-01-20T14:09:55.212Z,16.41
2017-01-20T14:11:05.568Z,16.5
2017-01-20T14:12:16.362Z,16.41
2017-01-20T14:13:27.113Z,16.5
2017-01-20T14:14:37.862Z,16.5
2017-01-20T14:15:47.814Z,16.5
2017-01-20T14:16:58.137Z,16.5
2017-01-20T14:18:08.457Z,16.6
2017-01-20T14:19:18.803Z,16.6
2017-01-20T14:20:29.536Z,16.5
2017-01-20T14:21:39.883Z,16.31
2017-01-20T14:22:49.825Z,16.41
2017-01-20T14:24:00.554Z,16.89
2017-01-20T14:25:10.889Z,16.8
2017-01-20T14:26:21.632Z,16.8
2017-01-20T14:27:32.396Z,16.6
2017-01-20T14:28:42.741Z,16.6
2017-01-20T14:29:53.059Z,16.78
2017-01-20T14:31:03.395Z,16.98
2017-01-20T14:32:13.328Z,16.98
2017-01-20T14:33:24.061Z,17.07
2017-01-20T14:34:34.787Z,16.98
2017-01-20T14:35:45.521Z,17.17
2017-01-20T14:36:56.238Z,17.07
2017-01-20T14:38:06.576Z,17.07
2017-01-20T14:39:17.485Z,16.88
2017-01-20T14:40:27.031Z,16.98
2017-01-20T14:41:37.757Z,16.98
2017-01-20T14:42:48.514Z,16.88
2017-01-20T14:43:59.219Z,16.98
2017-01-20T14:45:09.946Z,16.78
2017-01-20T14:46:19.869Z,16.88
2017-01-20T14:47:30.585Z,16.78
2017-01-20T14:48:40.891Z,17.17
2017-01-20T14:49:51.204Z,16.78
2017-01-20T14:51:01.122Z,17.17
2017-01-20T14:52:11.428Z,16.88
2017-01-20T14:53:22.134Z,16.98
2017-01-20T14:54:32.827Z,17.17
2017-01-20T14:55:42.746Z,17.17
2017-01-20T14:56:53.457Z,16.88
2017-01-20T14:58:03.361Z,17.17
2017-01-20T14:59:13.660Z,17.07
2017-01-20T15:00:24.374Z,17.17
2017-01-20T15:01:34.687Z,17.46
2017-01-20T15:02:44.991Z,17.27
2017-01-20T15:03:54.496Z,17.46
2017-01-20T15:05:04.409Z,17.27
2017-01-20T15:06:14.335Z,17.17
2017-01-20T15:07:23.850Z,17.17